sensor_id;sensor_type;location;lat;lon;timestamp;temperature;humidity
55064;DHT22;40963;52.168;21.296;2023-06-22T00:00:52;20.40;99.90
55064;DHT22;40963;52.168;21.296;2023-06-22T00:03:19;20.40;99.90
55064;DHT22;40963;52.168;21.296;2023-06-22T00:05:46;20.40;99.90
55064;DHT22;40963;52.168;21.296;2023-06-22T00:08:12;20.40;99.90
55064;DHT22;40963;52.168;21.296;2023-06-22T00:10:38;20.40;99.90
55064;DHT22;40963;52.168;21.296;2023-06-22T00:13:05;20.40;99.90
55064;DHT22;40963;52.168;21.296;2023-06-22T00:15:31;20.40;99.90
55064;DHT22;40963;52.168;21.296;2023-06-22T00:17:57;20.40;99.90
55064;DHT22;40963;52.168;21.296;2023-06-22T00:20:23;20.30;99.90
55064;DHT22;40963;52.168;21.296;2023-06-22T00:22:53;20.30;99.90
55064;DHT22;40963;52.168;21.296;2023-06-22T00:25:19;20.30;99.90
55064;DHT22;40963;52.168;21.296;2023-06-22T00:27:45;20.30;99.90
55064;DHT22;40963;52.168;21.296;2023-06-22T00:30:11;20.30;99.90
55064;DHT22;40963;52.168;21.296;2023-06-22T00:32:36;20.20;99.90
55064;DHT22;40963;52.168;21.296;2023-06-22T00:35:02;20.20;99.90
55064;DHT22;40963;52.168;21.296;2023-06-22T00:37:28;20.10;99.90
55064;DHT22;40963;52.168;21.296;2023-06-22T00:39:55;20.10;99.90
55064;DHT22;40963;52.168;21.296;2023-06-22T00:42:22;20.10;99.90
55064;DHT22;40963;52.168;21.296;2023-06-22T00:44:48;20.10;99.90
55064;DHT22;40963;52.168;21.296;2023-06-22T00:47:15;20.10;99.90
55064;DHT22;40963;52.168;21.296;2023-06-22T00:49:42;20.00;99.90
55064;DHT22;40963;52.168;21.296;2023-06-22T00:52:09;20.00;99.90
55064;DHT22;40963;52.168;21.296;2023-06-22T00:54:42;19.90;99.90
55064;DHT22;40963;52.168;21.296;2023-06-22T00:57:12;19.90;99.90
55064;DHT22;40963;52.168;21.296;2023-06-22T00:59:45;19.80;99.90
55064;DHT22;40963;52.168;21.296;2023-06-22T01:02:11;19.80;99.90
55064;DHT22;40963;52.168;21.296;2023-06-22T01:04:38;19.80;99.90
55064;DHT22;40963;52.168;21.296;2023-06-22T01:10:11;19.80;99.90
55064;DHT22;40963;52.168;21.296;2023-06-22T01:12:43;19.70;99.90
55064;DHT22;40963;52.168;21.296;2023-06-22T01:15:27;19.70;99.90
55064;DHT22;40963;52.168;21.296;2023-06-22T01:17:56;19.60;99.90
55064;DHT22;40963;52.168;21.296;2023-06-22T01:20:22;19.60;99.90
55064;DHT22;40963;52.168;21.296;2023-06-22T01:23:06;19.50;99.90
55064;DHT22;40963;52.168;21.296;2023-06-22T01:25:41;19.50;99.90
55064;DHT22;40963;52.168;21.296;2023-06-22T01:30:46;19.50;99.90
55064;DHT22;40963;52.168;21.296;2023-06-22T01:33:13;19.40;99.90
55064;DHT22;40963;52.168;21.296;2023-06-22T01:35:39;19.40;99.90
55064;DHT22;40963;52.168;21.296;2023-06-22T01:38:06;19.40;99.90
55064;DHT22;40963;52.168;21.296;2023-06-22T01:40:34;19.40;99.90
55064;DHT22;40963;52.168;21.296;2023-06-22T01:43:01;19.40;99.90
55064;DHT22;40963;52.168;21.296;2023-06-22T01:45:27;19.40;99.90
55064;DHT22;40963;52.168;21.296;2023-06-22T01:47:54;19.30;99.90
55064;DHT22;40963;52.168;21.296;2023-06-22T01:50:20;19.40;99.90
55064;DHT22;40963;52.168;21.296;2023-06-22T01:52:47;19.30;99.90
55064;DHT22;40963;52.168;21.296;2023-06-22T01:55:12;19.30;99.90
55064;DHT22;40963;52.168;21.296;2023-06-22T01:57:39;19.30;99.90
55064;DHT22;40963;52.168;21.296;2023-06-22T02:00:07;19.30;99.90
55064;DHT22;40963;52.168;21.296;2023-06-22T02:02:41;19.30;99.90
55064;DHT22;40963;52.168;21.296;2023-06-22T02:05:09;19.30;99.90
55064;DHT22;40963;52.168;21.296;2023-06-22T02:07:54;19.30;99.90
55064;DHT22;40963;52.168;21.296;2023-06-22T02:10:23;19.30;99.90
55064;DHT22;40963;52.168;21.296;2023-06-22T02:12:50;19.30;99.90
55064;DHT22;40963;52.168;21.296;2023-06-22T02:15:17;19.20;99.90
55064;DHT22;40963;52.168;21.296;2023-06-22T02:17:43;19.20;99.90
55064;DHT22;40963;52.168;21.296;2023-06-22T02:20:15;19.20;99.90
55064;DHT22;40963;52.168;21.296;2023-06-22T02:22:41;19.20;99.90
55064;DHT22;40963;52.168;21.296;2023-06-22T02:25:07;19.20;99.90
55064;DHT22;40963;52.168;21.296;2023-06-22T02:27:32;19.20;99.90
55064;DHT22;40963;52.168;21.296;2023-06-22T02:29:58;19.20;99.90
55064;DHT22;40963;52.168;21.296;2023-06-22T02:32:23;19.20;99.90
55064;DHT22;40963;52.168;21.296;2023-06-22T02:34:49;19.20;99.90
55064;DHT22;40963;52.168;21.296;2023-06-22T02:37:15;19.20;99.90
55064;DHT22;40963;52.168;21.296;2023-06-22T02:39:41;19.20;99.90
55064;DHT22;40963;52.168;21.296;2023-06-22T02:42:07;19.20;99.90
55064;DHT22;40963;52.168;21.296;2023-06-22T02:44:32;19.20;99.90
55064;DHT22;40963;52.168;21.296;2023-06-22T02:46:58;19.20;99.90
55064;DHT22;40963;52.168;21.296;2023-06-22T02:49:24;19.20;99.90
55064;DHT22;40963;52.168;21.296;2023-06-22T02:51:50;19.20;99.90
55064;DHT22;40963;52.168;21.296;2023-06-22T02:54:16;19.30;99.90
55064;DHT22;40963;52.168;21.296;2023-06-22T02:56:42;19.30;99.90
55064;DHT22;40963;52.168;21.296;2023-06-22T02:59:09;19.30;99.90
55064;DHT22;40963;52.168;21.296;2023-06-22T03:01:36;19.30;99.90
55064;DHT22;40963;52.168;21.296;2023-06-22T03:04:09;19.30;99.90
55064;DHT22;40963;52.168;21.296;2023-06-22T03:06:35;19.40;99.90
55064;DHT22;40963;52.168;21.296;2023-06-22T03:09:03;19.40;99.90
55064;DHT22;40963;52.168;21.296;2023-06-22T03:11:32;19.40;99.90
55064;DHT22;40963;52.168;21.296;2023-06-22T03:13:59;19.40;99.90
55064;DHT22;40963;52.168;21.296;2023-06-22T03:16:24;19.40;99.90
55064;DHT22;40963;52.168;21.296;2023-06-22T03:18:50;19.40;99.90
55064;DHT22;40963;52.168;21.296;2023-06-22T03:21:16;19.40;99.90
55064;DHT22;40963;52.168;21.296;2023-06-22T03:23:42;19.40;99.90
55064;DHT22;40963;52.168;21.296;2023-06-22T03:26:09;19.40;99.90
55064;DHT22;40963;52.168;21.296;2023-06-22T03:28:34;19.40;99.90
55064;DHT22;40963;52.168;21.296;2023-06-22T03:31:00;19.40;99.90
55064;DHT22;40963;52.168;21.296;2023-06-22T03:33:26;19.40;99.90
55064;DHT22;40963;52.168;21.296;2023-06-22T03:35:51;19.50;99.90
55064;DHT22;40963;52.168;21.296;2023-06-22T03:38:17;19.50;99.90
55064;DHT22;40963;52.168;21.296;2023-06-22T03:40:43;19.50;99.90
55064;DHT22;40963;52.168;21.296;2023-06-22T03:43:09;19.50;99.90
55064;DHT22;40963;52.168;21.296;2023-06-22T03:45:34;19.60;99.90
55064;DHT22;40963;52.168;21.296;2023-06-22T03:48:00;19.60;99.90
55064;DHT22;40963;52.168;21.296;2023-06-22T03:50:27;19.60;99.90
55064;DHT22;40963;52.168;21.296;2023-06-22T03:52:52;19.60;99.90
55064;DHT22;40963;52.168;21.296;2023-06-22T03:55:20;19.70;99.90
55064;DHT22;40963;52.168;21.296;2023-06-22T03:57:45;19.70;99.90
55064;DHT22;40963;52.168;21.296;2023-06-22T04:00:11;19.70;99.90
55064;DHT22;40963;52.168;21.296;2023-06-22T04:02:37;19.70;99.90
55064;DHT22;40963;52.168;21.296;2023-06-22T04:05:03;19.70;99.90
55064;DHT22;40963;52.168;21.296;2023-06-22T04:07:29;19.80;99.90
55064;DHT22;40963;52.168;21.296;2023-06-22T04:09:54;19.80;99.90
55064;DHT22;40963;52.168;21.296;2023-06-22T04:12:20;19.90;99.90
55064;DHT22;40963;52.168;21.296;2023-06-22T04:14:45;19.90;99.90
55064;DHT22;40963;52.168;21.296;2023-06-22T04:17:11;19.90;99.90
55064;DHT22;40963;52.168;21.296;2023-06-22T04:19:39;20.00;99.90
55064;DHT22;40963;52.168;21.296;2023-06-22T04:22:05;20.00;99.90
55064;DHT22;40963;52.168;21.296;2023-06-22T04:24:33;20.10;99.90
55064;DHT22;40963;52.168;21.296;2023-06-22T04:26:58;20.10;99.90
55064;DHT22;40963;52.168;21.296;2023-06-22T04:29:29;20.10;99.90
55064;DHT22;40963;52.168;21.296;2023-06-22T04:31:56;20.10;99.90
55064;DHT22;40963;52.168;21.296;2023-06-22T04:34:24;20.20;99.90
55064;DHT22;40963;52.168;21.296;2023-06-22T04:36:53;20.20;99.90
55064;DHT22;40963;52.168;21.296;2023-06-22T04:39:19;20.30;99.90
55064;DHT22;40963;52.168;21.296;2023-06-22T04:41:45;20.30;99.90
55064;DHT22;40963;52.168;21.296;2023-06-22T04:44:12;20.40;99.90
55064;DHT22;40963;52.168;21.296;2023-06-22T04:46:38;20.40;99.90
55064;DHT22;40963;52.168;21.296;2023-06-22T04:49:08;20.40;99.90
55064;DHT22;40963;52.168;21.296;2023-06-22T04:51:40;20.50;99.90
55064;DHT22;40963;52.168;21.296;2023-06-22T04:54:06;20.60;99.90
55064;DHT22;40963;52.168;21.296;2023-06-22T04:56:33;20.50;99.90
55064;DHT22;40963;52.168;21.296;2023-06-22T04:58:58;20.60;99.90
55064;DHT22;40963;52.168;21.296;2023-06-22T05:01:24;20.60;99.90
55064;DHT22;40963;52.168;21.296;2023-06-22T05:03:51;20.60;99.90
55064;DHT22;40963;52.168;21.296;2023-06-22T05:06:21;20.70;99.90
55064;DHT22;40963;52.168;21.296;2023-06-22T05:08:58;20.70;99.90
55064;DHT22;40963;52.168;21.296;2023-06-22T05:11:27;20.80;99.90
55064;DHT22;40963;52.168;21.296;2023-06-22T05:13:53;20.90;99.90
55064;DHT22;40963;52.168;21.296;2023-06-22T05:16:20;21.00;99.90
55064;DHT22;40963;52.168;21.296;2023-06-22T05:18:55;21.00;99.90
55064;DHT22;40963;52.168;21.296;2023-06-22T05:21:26;21.10;99.90
55064;DHT22;40963;52.168;21.296;2023-06-22T05:23:53;21.10;99.90
55064;DHT22;40963;52.168;21.296;2023-06-22T05:26:19;21.20;99.90
55064;DHT22;40963;52.168;21.296;2023-06-22T05:28:46;21.30;99.90
55064;DHT22;40963;52.168;21.296;2023-06-22T05:31:15;21.30;99.90
55064;DHT22;40963;52.168;21.296;2023-06-22T05:33:42;21.40;99.90
55064;DHT22;40963;52.168;21.296;2023-06-22T05:36:08;21.40;99.90
55064;DHT22;40963;52.168;21.296;2023-06-22T05:38:35;21.50;99.90
55064;DHT22;40963;52.168;21.296;2023-06-22T05:41:01;21.50;99.90
55064;DHT22;40963;52.168;21.296;2023-06-22T05:43:27;21.50;99.90
55064;DHT22;40963;52.168;21.296;2023-06-22T05:45:52;21.60;99.90
55064;DHT22;40963;52.168;21.296;2023-06-22T05:48:18;21.60;99.90
55064;DHT22;40963;52.168;21.296;2023-06-22T05:50:44;21.60;99.90
55064;DHT22;40963;52.168;21.296;2023-06-22T05:53:09;21.60;99.90
55064;DHT22;40963;52.168;21.296;2023-06-22T05:55:35;21.60;99.90
55064;DHT22;40963;52.168;21.296;2023-06-22T05:58:01;21.50;99.90
55064;DHT22;40963;52.168;21.296;2023-06-22T06:00:26;21.50;99.90
55064;DHT22;40963;52.168;21.296;2023-06-22T06:02:52;21.50;99.90
55064;DHT22;40963;52.168;21.296;2023-06-22T06:05:18;21.50;99.90
55064;DHT22;40963;52.168;21.296;2023-06-22T06:07:45;21.40;99.90
55064;DHT22;40963;52.168;21.296;2023-06-22T06:10:11;21.40;99.90
55064;DHT22;40963;52.168;21.296;2023-06-22T06:12:37;21.40;99.90
55064;DHT22;40963;52.168;21.296;2023-06-22T06:15:04;21.40;99.90
55064;DHT22;40963;52.168;21.296;2023-06-22T06:17:30;21.50;99.90
55064;DHT22;40963;52.168;21.296;2023-06-22T06:19:56;21.50;99.90
55064;DHT22;40963;52.168;21.296;2023-06-22T06:22:21;21.50;99.90
55064;DHT22;40963;52.168;21.296;2023-06-22T06:24:49;21.50;99.90
55064;DHT22;40963;52.168;21.296;2023-06-22T06:27:14;21.50;99.90
55064;DHT22;40963;52.168;21.296;2023-06-22T06:29:40;21.50;99.90
55064;DHT22;40963;52.168;21.296;2023-06-22T06:32:06;21.50;99.90
55064;DHT22;40963;52.168;21.296;2023-06-22T06:34:32;21.50;99.90
55064;DHT22;40963;52.168;21.296;2023-06-22T06:36:57;21.50;99.90
55064;DHT22;40963;52.168;21.296;2023-06-22T06:39:23;21.60;99.90
55064;DHT22;40963;52.168;21.296;2023-06-22T06:41:49;21.60;99.90
55064;DHT22;40963;52.168;21.296;2023-06-22T06:44:15;21.60;99.90
55064;DHT22;40963;52.168;21.296;2023-06-22T06:46:40;21.60;99.90
55064;DHT22;40963;52.168;21.296;2023-06-22T06:49:07;21.60;99.90
55064;DHT22;40963;52.168;21.296;2023-06-22T06:51:32;21.60;99.90
55064;DHT22;40963;52.168;21.296;2023-06-22T06:53:58;21.60;99.90
55064;DHT22;40963;52.168;21.296;2023-06-22T06:56:24;21.70;99.90
55064;DHT22;40963;52.168;21.296;2023-06-22T06:58:50;21.60;99.90
55064;DHT22;40963;52.168;21.296;2023-06-22T07:01:16;21.60;99.90
55064;DHT22;40963;52.168;21.296;2023-06-22T07:03:42;21.70;99.90
55064;DHT22;40963;52.168;21.296;2023-06-22T07:06:08;21.70;99.90
55064;DHT22;40963;52.168;21.296;2023-06-22T07:08:34;21.70;99.90
55064;DHT22;40963;52.168;21.296;2023-06-22T07:11:01;21.60;99.90
55064;DHT22;40963;52.168;21.296;2023-06-22T07:13:27;21.60;99.90
55064;DHT22;40963;52.168;21.296;2023-06-22T07:15:53;21.70;99.90
55064;DHT22;40963;52.168;21.296;2023-06-22T07:18:18;21.70;99.90
55064;DHT22;40963;52.168;21.296;2023-06-22T07:20:44;21.70;99.90
55064;DHT22;40963;52.168;21.296;2023-06-22T07:23:10;21.70;99.90
55064;DHT22;40963;52.168;21.296;2023-06-22T07:25:35;21.80;99.90
55064;DHT22;40963;52.168;21.296;2023-06-22T07:28:03;21.80;99.90
55064;DHT22;40963;52.168;21.296;2023-06-22T07:30:30;21.90;99.90
55064;DHT22;40963;52.168;21.296;2023-06-22T07:32:56;21.90;99.90
55064;DHT22;40963;52.168;21.296;2023-06-22T07:35:22;21.90;99.90
55064;DHT22;40963;52.168;21.296;2023-06-22T07:37:48;21.90;99.90
55064;DHT22;40963;52.168;21.296;2023-06-22T07:40:13;21.90;99.90
55064;DHT22;40963;52.168;21.296;2023-06-22T07:42:39;22.00;99.90
55064;DHT22;40963;52.168;21.296;2023-06-22T07:45:05;22.00;99.90
55064;DHT22;40963;52.168;21.296;2023-06-22T07:47:33;22.00;99.90
55064;DHT22;40963;52.168;21.296;2023-06-22T07:50:01;22.10;99.90
55064;DHT22;40963;52.168;21.296;2023-06-22T07:52:27;22.20;99.90
55064;DHT22;40963;52.168;21.296;2023-06-22T07:54:53;22.30;99.90
55064;DHT22;40963;52.168;21.296;2023-06-22T07:57:19;22.40;99.90
55064;DHT22;40963;52.168;21.296;2023-06-22T07:59:45;22.50;99.90
55064;DHT22;40963;52.168;21.296;2023-06-22T08:02:11;22.60;99.90
55064;DHT22;40963;52.168;21.296;2023-06-22T08:04:37;22.70;99.90
55064;DHT22;40963;52.168;21.296;2023-06-22T08:07:03;22.90;99.90
55064;DHT22;40963;52.168;21.296;2023-06-22T08:09:31;23.00;99.90
55064;DHT22;40963;52.168;21.296;2023-06-22T08:11:57;23.20;99.90
55064;DHT22;40963;52.168;21.296;2023-06-22T08:14:25;23.20;99.90
55064;DHT22;40963;52.168;21.296;2023-06-22T08:16:50;23.30;99.90
55064;DHT22;40963;52.168;21.296;2023-06-22T08:19:16;23.30;99.90
55064;DHT22;40963;52.168;21.296;2023-06-22T08:21:42;23.30;99.90
55064;DHT22;40963;52.168;21.296;2023-06-22T08:24:08;23.40;99.90
55064;DHT22;40963;52.168;21.296;2023-06-22T08:26:34;23.50;99.90
55064;DHT22;40963;52.168;21.296;2023-06-22T08:29:03;23.60;99.90
55064;DHT22;40963;52.168;21.296;2023-06-22T08:31:28;23.70;99.90
55064;DHT22;40963;52.168;21.296;2023-06-22T08:33:54;23.90;99.90
55064;DHT22;40963;52.168;21.296;2023-06-22T08:36:20;24.00;99.90
55064;DHT22;40963;52.168;21.296;2023-06-22T08:38:45;24.10;99.90
55064;DHT22;40963;52.168;21.296;2023-06-22T08:41:17;24.20;99.90
55064;DHT22;40963;52.168;21.296;2023-06-22T08:43:43;24.30;99.90
55064;DHT22;40963;52.168;21.296;2023-06-22T08:46:09;24.30;99.90
55064;DHT22;40963;52.168;21.296;2023-06-22T08:48:35;24.30;99.90
55064;DHT22;40963;52.168;21.296;2023-06-22T08:51:01;24.50;99.90
55064;DHT22;40963;52.168;21.296;2023-06-22T08:53:27;24.60;99.90
55064;DHT22;40963;52.168;21.296;2023-06-22T08:55:53;24.70;99.90
55064;DHT22;40963;52.168;21.296;2023-06-22T08:58:19;24.80;99.90
55064;DHT22;40963;52.168;21.296;2023-06-22T09:00:45;24.90;99.90
55064;DHT22;40963;52.168;21.296;2023-06-22T09:03:11;24.90;99.90
55064;DHT22;40963;52.168;21.296;2023-06-22T09:05:37;24.90;99.90
55064;DHT22;40963;52.168;21.296;2023-06-22T09:08:03;24.90;99.90
55064;DHT22;40963;52.168;21.296;2023-06-22T09:10:29;24.90;99.70
55064;DHT22;40963;52.168;21.296;2023-06-22T09:12:54;25.10;99.80
55064;DHT22;40963;52.168;21.296;2023-06-22T09:15:20;25.20;98.30
55064;DHT22;40963;52.168;21.296;2023-06-22T09:17:46;25.20;98.90
55064;DHT22;40963;52.168;21.296;2023-06-22T09:20:12;25.30;99.20
55064;DHT22;40963;52.168;21.296;2023-06-22T09:22:38;25.40;99.00
55064;DHT22;40963;52.168;21.296;2023-06-22T09:25:04;25.50;97.30
55064;DHT22;40963;52.168;21.296;2023-06-22T09:27:30;25.60;96.70
55064;DHT22;40963;52.168;21.296;2023-06-22T09:29:56;25.70;96.60
55064;DHT22;40963;52.168;21.296;2023-06-22T09:32:24;25.80;96.00
55064;DHT22;40963;52.168;21.296;2023-06-22T09:34:50;25.90;94.70
55064;DHT22;40963;52.168;21.296;2023-06-22T09:37:15;25.90;93.40
55064;DHT22;40963;52.168;21.296;2023-06-22T09:39:41;26.00;93.00
55064;DHT22;40963;52.168;21.296;2023-06-22T09:42:07;26.00;93.10
55064;DHT22;40963;52.168;21.296;2023-06-22T09:44:33;26.10;92.10
55064;DHT22;40963;52.168;21.296;2023-06-22T09:46:59;26.20;90.80
55064;DHT22;40963;52.168;21.296;2023-06-22T09:49:25;26.10;90.10
55064;DHT22;40963;52.168;21.296;2023-06-22T09:51:51;26.10;88.40
55064;DHT22;40963;52.168;21.296;2023-06-22T09:54:17;26.20;90.00
55064;DHT22;40963;52.168;21.296;2023-06-22T09:56:43;26.30;84.70
55064;DHT22;40963;52.168;21.296;2023-06-22T09:59:09;26.40;83.10
55064;DHT22;40963;52.168;21.296;2023-06-22T10:01:35;26.50;81.80
55064;DHT22;40963;52.168;21.296;2023-06-22T10:04:01;26.50;83.90
55064;DHT22;40963;52.168;21.296;2023-06-22T10:06:27;26.70;86.90
55064;DHT22;40963;52.168;21.296;2023-06-22T10:08:53;26.80;83.60
55064;DHT22;40963;52.168;21.296;2023-06-22T10:11:18;26.90;78.90
55064;DHT22;40963;52.168;21.296;2023-06-22T10:13:44;26.90;78.90
55064;DHT22;40963;52.168;21.296;2023-06-22T10:16:10;27.00;76.30
55064;DHT22;40963;52.168;21.296;2023-06-22T10:18:36;27.00;69.60
55064;DHT22;40963;52.168;21.296;2023-06-22T10:21:01;26.90;68.40
55064;DHT22;40963;52.168;21.296;2023-06-22T10:23:27;27.00;68.20
55064;DHT22;40963;52.168;21.296;2023-06-22T10:25:53;27.00;68.10
55064;DHT22;40963;52.168;21.296;2023-06-22T10:28:18;27.00;64.90
55064;DHT22;40963;52.168;21.296;2023-06-22T10:30:44;27.00;63.20
55064;DHT22;40963;52.168;21.296;2023-06-22T10:33:11;27.10;63.30
55064;DHT22;40963;52.168;21.296;2023-06-22T10:35:37;27.10;64.70
55064;DHT22;40963;52.168;21.296;2023-06-22T10:38:03;27.20;65.00
55064;DHT22;40963;52.168;21.296;2023-06-22T10:40:29;27.20;63.70
55064;DHT22;40963;52.168;21.296;2023-06-22T10:42:55;27.30;63.50
55064;DHT22;40963;52.168;21.296;2023-06-22T10:45:20;27.30;64.60
55064;DHT22;40963;52.168;21.296;2023-06-22T10:47:46;27.40;63.00
55064;DHT22;40963;52.168;21.296;2023-06-22T10:50:12;27.40;62.00
55064;DHT22;40963;52.168;21.296;2023-06-22T10:52:38;27.40;61.90
55064;DHT22;40963;52.168;21.296;2023-06-22T10:55:04;27.40;61.90
55064;DHT22;40963;52.168;21.296;2023-06-22T10:57:30;27.40;61.20
55064;DHT22;40963;52.168;21.296;2023-06-22T10:59:55;27.50;61.00
55064;DHT22;40963;52.168;21.296;2023-06-22T11:02:21;27.50;62.10
55064;DHT22;40963;52.168;21.296;2023-06-22T11:04:46;27.60;62.10
55064;DHT22;40963;52.168;21.296;2023-06-22T11:07:13;27.50;61.10
55064;DHT22;40963;52.168;21.296;2023-06-22T11:09:39;27.60;59.20
55064;DHT22;40963;52.168;21.296;2023-06-22T11:12:05;27.50;58.70
55064;DHT22;40963;52.168;21.296;2023-06-22T11:14:31;27.50;60.60
55064;DHT22;40963;52.168;21.296;2023-06-22T11:16:59;27.50;59.30
55064;DHT22;40963;52.168;21.296;2023-06-22T11:19:24;27.50;59.10
55064;DHT22;40963;52.168;21.296;2023-06-22T11:21:50;27.40;57.30
55064;DHT22;40963;52.168;21.296;2023-06-22T11:24:16;27.40;56.80
55064;DHT22;40963;52.168;21.296;2023-06-22T11:26:42;27.40;56.30
55064;DHT22;40963;52.168;21.296;2023-06-22T11:29:08;27.40;56.30
55064;DHT22;40963;52.168;21.296;2023-06-22T11:31:34;27.40;56.50
55064;DHT22;40963;52.168;21.296;2023-06-22T11:34:00;27.40;57.00
55064;DHT22;40963;52.168;21.296;2023-06-22T11:36:26;27.50;56.50
55064;DHT22;40963;52.168;21.296;2023-06-22T11:38:52;27.60;57.30
55064;DHT22;40963;52.168;21.296;2023-06-22T11:41:18;27.70;58.70
55064;DHT22;40963;52.168;21.296;2023-06-22T11:43:44;27.80;59.80
55064;DHT22;40963;52.168;21.296;2023-06-22T11:46:10;27.90;59.10
55064;DHT22;40963;52.168;21.296;2023-06-22T11:48:35;28.00;59.00
55064;DHT22;40963;52.168;21.296;2023-06-22T11:51:02;28.00;59.60
55064;DHT22;40963;52.168;21.296;2023-06-22T11:53:28;28.10;60.50
55064;DHT22;40963;52.168;21.296;2023-06-22T11:55:54;28.10;60.60
55064;DHT22;40963;52.168;21.296;2023-06-22T11:58:20;28.00;61.10
55064;DHT22;40963;52.168;21.296;2023-06-22T12:00:46;28.10;62.00
55064;DHT22;40963;52.168;21.296;2023-06-22T12:03:11;28.10;60.00
55064;DHT22;40963;52.168;21.296;2023-06-22T12:05:38;28.20;58.10
55064;DHT22;40963;52.168;21.296;2023-06-22T12:08:04;28.10;55.50
55064;DHT22;40963;52.168;21.296;2023-06-22T12:10:29;28.10;53.30
55064;DHT22;40963;52.168;21.296;2023-06-22T12:12:55;28.10;53.70
55064;DHT22;40963;52.168;21.296;2023-06-22T12:15:23;28.10;54.20
55064;DHT22;40963;52.168;21.296;2023-06-22T12:17:49;28.20;54.80
55064;DHT22;40963;52.168;21.296;2023-06-22T12:20:15;28.30;54.70
55064;DHT22;40963;52.168;21.296;2023-06-22T12:22:41;28.20;55.70
55064;DHT22;40963;52.168;21.296;2023-06-22T12:25:07;28.30;56.10
55064;DHT22;40963;52.168;21.296;2023-06-22T12:27:33;28.30;57.20
55064;DHT22;40963;52.168;21.296;2023-06-22T12:29:59;28.40;58.30
55064;DHT22;40963;52.168;21.296;2023-06-22T12:32:25;28.50;57.00
55064;DHT22;40963;52.168;21.296;2023-06-22T12:34:51;28.50;57.10
55064;DHT22;40963;52.168;21.296;2023-06-22T12:37:17;28.50;55.10
55064;DHT22;40963;52.168;21.296;2023-06-22T12:39:42;28.40;54.40
55064;DHT22;40963;52.168;21.296;2023-06-22T12:42:08;28.50;54.50
55064;DHT22;40963;52.168;21.296;2023-06-22T12:44:35;28.40;54.50
55064;DHT22;40963;52.168;21.296;2023-06-22T12:47:01;28.50;55.50
55064;DHT22;40963;52.168;21.296;2023-06-22T12:49:26;28.50;55.00
55064;DHT22;40963;52.168;21.296;2023-06-22T12:51:52;28.50;55.50
55064;DHT22;40963;52.168;21.296;2023-06-22T12:54:18;28.40;55.30
55064;DHT22;40963;52.168;21.296;2023-06-22T12:56:44;28.30;55.30
55064;DHT22;40963;52.168;21.296;2023-06-22T12:59:10;28.30;55.20
55064;DHT22;40963;52.168;21.296;2023-06-22T13:01:36;28.20;54.80
55064;DHT22;40963;52.168;21.296;2023-06-22T13:04:02;28.20;54.80
55064;DHT22;40963;52.168;21.296;2023-06-22T13:06:28;28.10;54.70
55064;DHT22;40963;52.168;21.296;2023-06-22T13:08:54;28.10;54.90
55064;DHT22;40963;52.168;21.296;2023-06-22T13:11:20;28.20;54.20
55064;DHT22;40963;52.168;21.296;2023-06-22T13:13:46;28.20;53.60
55064;DHT22;40963;52.168;21.296;2023-06-22T13:16:12;28.30;54.40
55064;DHT22;40963;52.168;21.296;2023-06-22T13:18:37;28.30;54.10
55064;DHT22;40963;52.168;21.296;2023-06-22T13:21:03;28.30;55.50
55064;DHT22;40963;52.168;21.296;2023-06-22T13:23:29;28.40;54.50
55064;DHT22;40963;52.168;21.296;2023-06-22T13:25:55;28.40;55.10
55064;DHT22;40963;52.168;21.296;2023-06-22T13:28:21;28.40;55.20
55064;DHT22;40963;52.168;21.296;2023-06-22T13:30:47;28.30;55.10
55064;DHT22;40963;52.168;21.296;2023-06-22T13:33:13;28.30;55.10
55064;DHT22;40963;52.168;21.296;2023-06-22T13:35:39;28.40;55.90
55064;DHT22;40963;52.168;21.296;2023-06-22T13:38:08;28.40;54.10
55064;DHT22;40963;52.168;21.296;2023-06-22T13:40:34;28.30;53.50
55064;DHT22;40963;52.168;21.296;2023-06-22T13:43:00;28.20;54.20
55064;DHT22;40963;52.168;21.296;2023-06-22T13:45:26;28.30;54.20
55064;DHT22;40963;52.168;21.296;2023-06-22T13:47:52;28.30;54.50
55064;DHT22;40963;52.168;21.296;2023-06-22T13:50:18;28.40;54.40
55064;DHT22;40963;52.168;21.296;2023-06-22T13:52:43;28.50;52.70
55064;DHT22;40963;52.168;21.296;2023-06-22T13:55:09;28.50;52.40
55064;DHT22;40963;52.168;21.296;2023-06-22T13:57:35;28.50;52.70
55064;DHT22;40963;52.168;21.296;2023-06-22T14:00:02;28.50;51.20
55064;DHT22;40963;52.168;21.296;2023-06-22T14:02:30;28.60;51.00
55064;DHT22;40963;52.168;21.296;2023-06-22T14:04:55;28.60;51.70
55064;DHT22;40963;52.168;21.296;2023-06-22T14:07:21;28.60;51.80
55064;DHT22;40963;52.168;21.296;2023-06-22T14:09:47;28.60;52.40
55064;DHT22;40963;52.168;21.296;2023-06-22T14:12:12;28.70;53.00
55064;DHT22;40963;52.168;21.296;2023-06-22T14:14:38;28.70;52.20
55064;DHT22;40963;52.168;21.296;2023-06-22T14:17:04;28.80;52.30
55064;DHT22;40963;52.168;21.296;2023-06-22T14:19:30;28.80;52.20
55064;DHT22;40963;52.168;21.296;2023-06-22T14:21:56;28.90;52.00
55064;DHT22;40963;52.168;21.296;2023-06-22T14:24:22;28.90;52.00
55064;DHT22;40963;52.168;21.296;2023-06-22T14:26:48;29.00;52.00
55064;DHT22;40963;52.168;21.296;2023-06-22T14:29:14;29.00;53.00
55064;DHT22;40963;52.168;21.296;2023-06-22T14:31:40;28.90;52.50
55064;DHT22;40963;52.168;21.296;2023-06-22T14:34:06;28.90;53.80
55064;DHT22;40963;52.168;21.296;2023-06-22T14:36:32;28.90;54.90
55064;DHT22;40963;52.168;21.296;2023-06-22T14:39:00;28.90;55.20
55064;DHT22;40963;52.168;21.296;2023-06-22T14:41:26;28.80;54.40
55064;DHT22;40963;52.168;21.296;2023-06-22T14:43:51;28.80;56.30
55064;DHT22;40963;52.168;21.296;2023-06-22T14:46:19;28.90;59.00
55064;DHT22;40963;52.168;21.296;2023-06-22T14:48:45;28.80;57.40
55064;DHT22;40963;52.168;21.296;2023-06-22T14:51:12;28.70;57.60
55064;DHT22;40963;52.168;21.296;2023-06-22T14:53:37;28.70;58.00
55064;DHT22;40963;52.168;21.296;2023-06-22T14:56:03;28.60;58.60
55064;DHT22;40963;52.168;21.296;2023-06-22T14:58:37;28.40;58.00
55064;DHT22;40963;52.168;21.296;2023-06-22T15:01:05;28.30;59.20
55064;DHT22;40963;52.168;21.296;2023-06-22T15:03:34;28.20;59.60
55064;DHT22;40963;52.168;21.296;2023-06-22T15:06:01;28.10;60.10
55064;DHT22;40963;52.168;21.296;2023-06-22T15:08:28;27.90;59.80
55064;DHT22;40963;52.168;21.296;2023-06-22T15:10:54;27.80;59.80
55064;DHT22;40963;52.168;21.296;2023-06-22T15:13:20;27.70;60.10
55064;DHT22;40963;52.168;21.296;2023-06-22T15:15:48;27.60;60.10